Time;durP1;ratioP1;P1;durP2;ratioP2;P2;SDS_P1;SDS_P2;PMS_P1;PMS_P2;Temp;Humidity;BMP_temperature;BMP_pressure;BME280_temperature;BME280_humidity;BME280_pressure;Samples;Min_cycle;Max_cycle;Signal;HPM_P1;HPM_P2
2022/03/23 00:02:15;;;;;;;6.40;2.72;;;;;;;5.22;38.09;96591.91;5086758;28;20016;-68
2022/03/23 00:04:40;;;;;;;7.10;2.58;;;;;;;5.21;37.69;96592.84;5086030;28;20406;-68
2022/03/23 00:07:06;;;;;;;4.70;2.50;;;;;;;5.07;37.96;96593.88;5086279;28;20024;-68
2022/03/23 00:09:32;;;;;;;6.30;2.25;;;;;;;5.02;38.28;96588.06;5086698;28;20085;-68
2022/03/23 00:11:57;;;;;;;3.47;2.20;;;;;;;4.98;37.60;96582.09;5085777;28;20039;-68
2022/03/23 00:14:23;;;;;;;7.32;2.60;;;;;;;5.05;38.02;96583.38;5086540;28;20029;-68
2022/03/23 00:16:49;;;;;;;4.72;2.80;;;;;;;5.07;37.44;96589.44;5086045;28;20020;-68
2022/03/23 00:19:16;;;;;;;4.10;2.35;;;;;;;5.00;37.93;96576.69;5086308;28;20061;-68
2022/03/23 00:21:41;;;;;;;3.28;2.03;;;;;;;4.90;37.77;96573.88;5085932;28;20478;-68
2022/03/23 00:24:07;;;;;;;7.63;2.28;;;;;;;4.91;37.95;96580.88;5085709;28;20054;-69
2022/03/23 00:26:32;;;;;;;5.40;2.45;;;;;;;4.90;37.90;96576.53;5086183;28;20024;-68
2022/03/23 00:28:58;;;;;;;6.40;2.45;;;;;;;4.92;37.68;96577.25;5085333;28;20386;-69
2022/03/23 00:31:23;;;;;;;6.97;2.10;;;;;;;4.90;37.49;96576.53;5086682;28;20039;-68
2022/03/23 00:33:50;;;;;;;4.93;2.38;;;;;;;4.89;37.76;96578.34;5084126;28;20115;-68
2022/03/23 00:36:15;;;;;;;5.45;2.35;;;;;;;4.91;37.59;96575.56;5086426;28;20044;-69
2022/03/23 00:38:41;;;;;;;8.50;2.60;;;;;;;4.90;38.07;96569.38;5085668;28;20111;-69
2022/03/23 00:41:06;;;;;;;4.30;2.20;;;;;;;4.92;37.07;96571.94;5085485;28;20392;-69
2022/03/23 00:43:32;;;;;;;4.50;2.47;;;;;;;5.01;37.49;96571.28;5085512;28;20020;-69
2022/03/23 00:45:58;;;;;;;4.70;2.30;;;;;;;5.06;37.25;96565.59;5085098;28;20036;-69
2022/03/23 00:48:23;;;;;;;4.07;2.10;;;;;;;5.11;37.51;96573.25;5085857;28;20467;-69
2022/03/23 00:50:49;;;;;;;5.38;2.58;;;;;;;5.07;37.80;96584.09;5085265;28;20058;-69
2022/03/23 00:53:15;;;;;;;4.05;2.42;;;;;;;5.08;37.31;96579.63;5085532;28;20486;-68
2022/03/23 00:55:41;;;;;;;4.43;2.75;;;;;;;5.02;37.33;96578.28;5085222;28;20043;-68
2022/03/23 00:58:07;;;;;;;4.20;2.38;;;;;;;4.98;37.23;96576.78;5085390;28;20043;-68
2022/03/23 01:00:32;;;;;;;7.55;2.50;;;;;;;4.90;36.91;96579.19;5085209;28;20049;-69
2022/03/23 01:02:58;;;;;;;3.88;2.42;;;;;;;4.93;37.47;96579.78;5085063;28;20028;-69
2022/03/23 01:05:24;;;;;;;4.50;2.30;;;;;;;4.87;37.33;96576.75;5085451;28;20024;-67
2022/03/23 01:07:49;;;;;;;5.05;2.90;;;;;;;4.99;37.80;96578.50;5084620;28;20111;-69
2022/03/23 01:10:15;;;;;;;4.57;2.33;;;;;;;5.00;37.17;96584.69;5084202;28;20562;-69
2022/03/23 01:12:42;;;;;;;8.10;2.70;;;;;;;4.91;37.43;96581.75;5083467;28;20648;-70
2022/03/23 01:15:09;;;;;;;8.35;2.65;;;;;;;4.93;37.79;96573.66;5085283;28;20031;-68
2022/03/23 01:17:35;;;;;;;5.90;2.40;;;;;;;4.98;37.17;96575.97;5083896;28;20035;-69
2022/03/23 01:20:01;;;;;;;6.25;2.78;;;;;;;4.95;37.87;96566.38;5084922;28;20039;-68
2022/03/23 01:22:26;;;;;;;3.45;2.50;;;;;;;4.97;37.11;96580.41;5084900;28;20477;-68
2022/03/23 01:24:51;;;;;;;3.60;2.58;;;;;;;4.87;37.26;96566.13;5084677;28;20016;-69
2022/03/23 01:27:17;;;;;;;4.28;2.45;;;;;;;4.92;37.94;96567.47;5085015;28;20122;-69
2022/03/23 01:29:43;;;;;;;6.85;2.58;;;;;;;4.91;37.56;96564.94;5084603;28;20415;-69
2022/03/23 01:32:09;;;;;;;5.93;2.50;;;;;;;4.88;37.59;96565.16;5083663;28;20021;-69
2022/03/23 01:34:34;;;;;;;4.05;2.28;;;;;;;4.87;38.12;96560.81;5084762;28;20047;-69
2022/03/23 01:36:59;;;;;;;5.95;2.33;;;;;;;4.87;37.88;96568.78;5085091;28;20047;-69
2022/03/23 01:39:25;;;;;;;4.95;2.50;;;;;;;4.93;37.66;96560.34;5084545;28;20356;-69
2022/03/23 01:41:50;;;;;;;4.70;2.33;;;;;;;4.87;37.96;96563.47;5084722;28;20028;-68
2022/03/23 01:44:19;;;;;;;4.05;2.65;;;;;;;4.82;37.81;96561.97;5084759;28;20024;-69
2022/03/23 01:47:10;;;;;;;5.45;2.70;;;;;;;4.72;38.33;96571.59;5084369;28;20032;-69
2022/03/23 01:49:39;;;;;;;7.13;3.08;;;;;;;4.68;38.68;96570.13;5085243;28;20024;-69
2022/03/23 01:52:06;;;;;;;7.47;3.65;;;;;;;4.73;38.98;96567.13;5084627;28;20036;-69
2022/03/23 01:54:32;;;;;;;6.43;3.30;;;;;;;4.70;39.25;96573.53;5084729;28;20478;-69
2022/03/23 01:56:57;;;;;;;9.35;4.10;;;;;;;4.67;39.16;96579.91;5084552;28;20035;-69
2022/03/23 01:59:23;;;;;;;6.95;3.60;;;;;;;4.68;38.76;96572.78;5066113;28;20024;-69
2022/03/23 02:01:48;;;;;;;11.45;3.05;;;;;;;4.74;38.87;96568.84;5084710;28;20031;-69
2022/03/23 02:04:14;;;;;;;5.32;3.20;;;;;;;4.81;38.85;96564.75;5082876;28;20024;-69
2022/03/23 02:06:39;;;;;;;3.85;2.40;;;;;;;4.82;38.46;96564.63;5083781;28;20458;-69
2022/03/23 02:09:05;;;;;;;5.90;2.60;;;;;;;4.90;38.00;96572.03;5084370;28;20494;-68
2022/03/23 02:11:32;;;;;;;7.70;2.78;;;;;;;4.88;38.50;96563.34;5084604;28;20020;-68
2022/03/23 02:13:58;;;;;;;5.80;2.58;;;;;;;4.82;38.91;96567.28;5082897;28;20524;-69
2022/03/23 02:16:24;;;;;;;4.53;2.72;;;;;;;4.88;38.35;96565.16;5084420;28;20020;-68
2022/03/23 02:18:49;;;;;;;6.80;2.67;;;;;;;4.89;38.69;96572.16;5084666;28;20024;-69
2022/03/23 02:21:15;;;;;;;5.95;2.80;;;;;;;4.86;38.63;96577.69;5086162;28;20387;-69
2022/03/23 02:23:40;;;;;;;6.95;2.78;;;;;;;4.78;38.53;96560.53;5087496;28;20016;-68
2022/03/23 02:26:05;;;;;;;5.00;2.60;;;;;;;4.87;39.15;96576.75;5087984;28;20032;-68
2022/03/23 02:28:31;;;;;;;6.65;2.80;;;;;;;4.81;38.54;96576.25;5087080;28;20027;-69
2022/03/23 02:30:56;;;;;;;5.97;2.63;;;;;;;4.81;39.12;96578.91;5086909;28;20032;-69
2022/03/23 02:33:22;;;;;;;4.78;2.90;;;;;;;4.79;38.75;96577.28;5088129;28;20024;-69
2022/03/23 02:35:48;;;;;;;7.45;2.75;;;;;;;4.80;39.19;96579.84;5087874;28;20024;-69
2022/03/23 02:38:17;;;;;;;8.70;3.00;;;;;;;4.71;39.37;96575.22;5088070;28;20482;-69
2022/03/23 02:40:45;;;;;;;7.15;2.70;;;;;;;4.75;38.71;96586.47;5088003;28;20061;-69
2022/03/23 02:43:11;;;;;;;6.50;2.70;;;;;;;4.72;39.04;96592.00;5087624;28;20434;-69
2022/03/23 02:45:36;;;;;;;4.25;2.97;;;;;;;4.57;39.24;96586.84;5088090;28;20031;-69
2022/03/23 02:48:03;;;;;;;6.35;2.97;;;;;;;4.58;39.40;96592.06;5087718;28;20410;-69
2022/03/23 02:50:29;;;;;;;6.50;3.83;;;;;;;4.59;39.81;96598.22;5087848;28;20081;-69
2022/03/23 03:04:10;;;;;;;5.70;2.80;;;;;;;4.36;40.87;96587.44;5071062;28;20063;-69
2022/03/23 03:06:35;;;;;;;6.50;2.97;;;;;;;4.31;41.50;96587.75;5087555;28;20039;-69
2022/03/23 03:09:01;;;;;;;9.35;2.90;;;;;;;4.31;41.57;96597.53;5087283;28;20020;-69
2022/03/23 03:11:26;;;;;;;5.47;2.75;;;;;;;4.28;41.98;96584.47;5087959;28;20410;-69
2022/03/23 03:13:52;;;;;;;5.30;2.25;;;;;;;4.26;41.82;96584.59;5087186;28;20020;-68
2022/03/23 03:16:18;;;;;;;7.32;2.78;;;;;;;4.25;42.10;96584.69;5087885;28;20082;-69
2022/03/23 03:18:44;;;;;;;5.55;2.53;;;;;;;4.17;41.82;96580.78;5087549;28;20097;-68
2022/03/23 03:21:10;;;;;;;8.65;2.97;;;;;;;4.19;42.19;96607.22;5087160;28;20058;-69
2022/03/23 03:23:42;;;;;;;4.13;2.50;;;;;;;4.22;42.46;96598.19;5087056;28;20469;-68
2022/03/23 03:26:08;;;;;;;9.23;2.75;;;;;;;4.22;42.20;96592.88;5086913;28;20121;-69
2022/03/23 03:28:34;;;;;;;4.65;3.15;;;;;;;4.20;42.40;96587.69;5087431;28;20506;-69
2022/03/23 03:31:04;;;;;;;6.63;3.10;;;;;;;4.20;42.67;96588.53;5086662;28;20468;-69
2022/03/23 03:33:30;;;;;;;5.78;3.10;;;;;;;4.24;42.92;96589.16;5087328;28;20027;-68
2022/03/23 03:35:55;;;;;;;8.68;3.10;;;;;;;4.22;42.82;96580.47;5086477;28;20036;-68
2022/03/23 03:38:21;;;;;;;5.03;2.78;;;;;;;4.22;42.31;96584.91;5087020;28;20028;-69
2022/03/23 03:40:46;;;;;;;6.80;2.95;;;;;;;4.13;42.92;96586.41;5086728;28;20035;-69
2022/03/23 03:43:12;;;;;;;4.85;2.85;;;;;;;4.05;43.53;96587.78;5085285;28;20086;-69
2022/03/23 03:45:38;;;;;;;5.65;2.72;;;;;;;4.04;43.16;96580.81;5086878;28;20024;-69
2022/03/23 03:48:03;;;;;;;4.75;2.55;;;;;;;4.02;43.20;96584.50;5086452;28;20031;-70
2022/03/23 03:50:29;;;;;;;10.98;3.40;;;;;;;3.93;43.51;96589.50;5087066;28;20036;-68
2022/03/23 03:52:55;;;;;;;8.45;3.20;;;;;;;3.99;43.52;96584.72;5086354;28;20020;-69
2022/03/23 03:55:20;;;;;;;5.85;3.30;;;;;;;3.98;44.29;96583.88;5086855;28;20016;-69
2022/03/23 03:57:46;;;;;;;5.72;2.97;;;;;;;3.99;44.37;96587.38;5086339;28;20092;-69
2022/03/23 04:00:12;;;;;;;7.72;3.00;;;;;;;3.97;44.70;96587.47;5086562;28;20426;-68
2022/03/23 04:02:38;;;;;;;8.82;2.90;;;;;;;3.91;44.43;96593.22;5085256;28;20032;-68
2022/03/23 04:05:04;;;;;;;7.30;3.58;;;;;;;4.00;44.43;96592.56;5085681;28;20055;-69
2022/03/23 04:07:32;;;;;;;9.43;3.60;;;;;;;3.97;44.57;96587.47;5087033;28;20398;-69
2022/03/23 04:10:03;;;;;;;7.32;3.72;;;;;;;4.03;44.57;96591.53;5085969;28;20499;-69
2022/03/23 04:12:28;;;;;;;8.82;3.40;;;;;;;4.00;44.79;96591.75;5085432;28;20039;-69
2022/03/23 04:14:53;;;;;;;8.45;3.45;;;;;;;3.98;44.84;96594.50;5086019;28;20020;-68
2022/03/23 04:17:19;;;;;;;7.70;3.08;;;;;;;4.04;44.95;96591.41;5086301;28;20058;-69
2022/03/23 04:19:44;;;;;;;6.55;3.33;;;;;;;4.00;45.07;96594.41;5085997;28;20055;-69
2022/03/23 04:22:10;;;;;;;5.25;2.92;;;;;;;4.12;45.14;96593.53;5084424;28;20557;-69
2022/03/23 04:24:35;;;;;;;8.45;3.40;;;;;;;4.07;45.36;96593.84;5086314;28;20051;-69
2022/03/23 04:27:00;;;;;;;5.03;2.90;;;;;;;4.09;45.38;96588.44;5084128;28;20500;-69
2022/03/23 04:29:26;;;;;;;6.60;3.15;;;;;;;4.11;45.10;96588.34;5086516;28;20076;-69
2022/03/23 04:31:52;;;;;;;5.30;2.80;;;;;;;4.04;44.96;96587.91;5085499;28;20031;-69
2022/03/23 04:34:17;;;;;;;7.20;3.33;;;;;;;3.92;45.74;96586.94;5085988;28;20376;-69
2022/03/23 04:36:43;;;;;;;10.13;3.20;;;;;;;4.03;45.89;96589.69;5085672;28;20036;-69
2022/03/23 04:39:08;;;;;;;4.30;2.88;;;;;;;4.01;46.12;96596.09;5085315;28;20039;-69
2022/03/23 04:41:34;;;;;;;7.28;3.20;;;;;;;4.02;45.80;96593.31;5085745;28;20032;-68
2022/03/23 04:43:59;;;;;;;6.68;3.20;;;;;;;4.03;46.29;96592.34;5084430;28;20028;-69
2022/03/23 04:46:25;;;;;;;6.90;3.17;;;;;;;4.06;46.02;96589.47;5085957;28;20130;-68
2022/03/23 04:48:50;;;;;;;6.70;3.28;;;;;;;4.04;46.84;96596.72;5085303;28;20024;-69
2022/03/23 04:51:16;;;;;;;7.38;3.00;;;;;;;4.10;46.30;96591.91;5085493;28;20028;-69
2022/03/23 04:53:41;;;;;;;5.25;3.13;;;;;;;4.11;45.44;96594.47;5085360;28;20027;-69
2022/03/23 04:56:07;;;;;;;7.82;3.33;;;;;;;4.08;45.96;96598.19;5085021;28;20027;-68
2022/03/23 04:58:34;;;;;;;13.40;3.72;;;;;;;4.13;46.53;96597.00;5084157;28;20025;-69
2022/03/23 05:01:00;;;;;;;7.55;3.58;;;;;;;4.13;46.75;96597.00;5084914;28;20031;-69
2022/03/23 05:03:25;;;;;;;8.82;3.85;;;;;;;4.20;46.67;96588.53;5086002;28;20012;-68
2022/03/23 05:05:52;;;;;;;11.60;3.65;;;;;;;4.27;46.55;96594.22;5084759;28;20036;-69
2022/03/23 05:08:17;;;;;;;8.75;3.25;;;;;;;4.44;46.28;96593.06;5085775;28;20089;-70
2022/03/23 05:10:43;;;;;;;8.32;3.22;;;;;;;4.46;45.85;96590.28;5085400;28;20024;-69
2022/03/23 05:13:08;;;;;;;6.35;3.45;;;;;;;4.51;46.06;96590.81;5085194;28;20453;-69
2022/03/23 05:15:33;;;;;;;9.30;3.85;;;;;;;4.58;45.83;96588.53;5085500;28;20472;-68
2022/03/23 05:17:59;;;;;;;5.95;3.30;;;;;;;4.71;46.20;96591.16;5085142;28;20028;-69
2022/03/23 05:20:24;;;;;;;7.65;4.05;;;;;;;4.77;46.01;96590.69;5084893;28;20027;-69
2022/03/23 05:22:50;;;;;;;10.25;4.60;;;;;;;4.92;45.94;96594.06;5084862;28;20028;-69
2022/03/23 05:25:15;;;;;;;7.35;4.10;;;;;;;5.06;45.25;96598.34;5083762;28;20432;-69
2022/03/23 05:27:42;;;;;;;8.50;4.30;;;;;;;5.12;44.83;96596.19;5084550;28;20085;-69
2022/03/23 05:30:09;;;;;;;8.05;4.25;;;;;;;5.28;45.35;96591.44;5084989;28;20465;-69
2022/03/23 05:32:34;;;;;;;6.28;3.75;;;;;;;5.09;45.71;96593.78;5083481;28;20039;-69
2022/03/23 05:35:00;;;;;;;10.57;4.20;;;;;;;4.90;45.43;96595.16;5085032;28;20020;-70
2022/03/23 05:37:25;;;;;;;8.68;4.13;;;;;;;4.82;46.30;96588.56;5084411;28;20052;-69
2022/03/23 05:39:51;;;;;;;7.13;4.10;;;;;;;4.70;46.49;96600.09;5083228;28;20121;-70
2022/03/23 05:42:16;;;;;;;11.18;4.50;;;;;;;4.70;46.52;96608.06;5084822;28;20028;-69
2022/03/23 05:44:42;;;;;;;8.80;4.10;;;;;;;4.54;47.04;96606.53;5084453;28;20043;-69
2022/03/23 05:47:07;;;;;;;7.38;4.43;;;;;;;4.51;46.72;96605.91;5085278;28;20028;-69
2022/03/23 05:49:33;;;;;;;7.97;4.15;;;;;;;4.41;47.80;96605.69;5084580;28;20035;-72
2022/03/23 05:51:59;;;;;;;7.22;4.10;;;;;;;4.38;48.24;96608.56;5083658;28;20024;-69
2022/03/23 05:54:24;;;;;;;8.85;4.03;;;;;;;4.41;47.93;96608.34;5084309;28;20016;-70
2022/03/23 05:56:50;;;;;;;7.55;4.18;;;;;;;4.36;48.12;96597.19;5088234;28;20016;-68
2022/03/23 05:59:16;;;;;;;10.45;4.57;;;;;;;4.42;48.80;96612.69;5088722;28;20402;-71
2022/03/23 06:01:41;;;;;;;6.68;4.25;;;;;;;4.37;48.84;96613.03;5087059;28;20116;-69
2022/03/23 06:04:08;;;;;;;9.13;3.97;;;;;;;4.32;49.25;96609.88;5089120;28;20024;-71
2022/03/23 06:06:33;;;;;;;8.27;4.10;;;;;;;4.40;49.12;96619.94;5088247;28;20038;-71
2022/03/23 06:08:59;;;;;;;8.25;4.03;;;;;;;4.33;49.93;96620.38;5087765;28;20032;-72
2022/03/23 06:11:24;;;;;;;9.43;4.50;;;;;;;4.45;49.58;96618.66;5088268;28;20077;-67
2022/03/23 06:13:50;;;;;;;6.32;4.15;;;;;;;4.40;49.52;96618.13;5088978;28;20020;-68
2022/03/23 06:16:16;;;;;;;10.70;4.55;;;;;;;4.79;49.43;96619.81;5088144;28;20016;-69
2022/03/23 06:18:41;;;;;;;12.30;4.20;;;;;;;4.96;48.83;96615.97;5088118;28;20031;-68
2022/03/23 06:21:07;;;;;;;7.45;4.18;;;;;;;5.35;48.35;96614.91;5087481;28;20024;-70
2022/03/23 06:23:32;;;;;;;8.45;3.90;;;;;;;5.79;47.10;96616.00;5086366;28;20020;-68
2022/03/23 06:25:57;;;;;;;10.75;4.38;;;;;;;5.77;47.00;96614.44;5088793;28;20075;-69
2022/03/23 06:28:23;;;;;;;11.68;4.82;;;;;;;5.72;46.46;96613.94;5087975;28;20044;-69
2022/03/23 06:30:50;;;;;;;7.13;3.70;;;;;;;5.81;46.29;96608.78;5088550;28;20410;-70
2022/03/23 06:33:16;;;;;;;7.53;3.78;;;;;;;6.12;45.81;96612.72;5088082;28;20110;-70
2022/03/23 06:35:42;;;;;;;8.70;3.60;;;;;;;5.90;46.35;96606.38;5087964;28;20099;-69
2022/03/23 06:38:07;;;;;;;11.63;4.25;;;;;;;6.34;45.11;96621.66;5088095;28;20044;-71
2022/03/23 06:40:34;;;;;;;7.85;3.55;;;;;;;6.51;44.16;96613.19;5087656;28;20502;-69
2022/03/23 06:42:59;;;;;;;7.50;3.83;;;;;;;6.51;44.69;96612.34;5088267;28;20411;-69
2022/03/23 06:45:25;;;;;;;5.82;3.90;;;;;;;6.62;44.45;96620.34;5087155;28;20035;-69
2022/03/23 06:47:50;;;;;;;9.55;3.20;;;;;;;6.51;44.72;96615.03;5086964;28;20016;-69
2022/03/23 06:50:16;;;;;;;9.05;3.80;;;;;;;6.29;45.66;96625.56;5087742;28;20032;-71
2022/03/23 06:52:41;;;;;;;9.30;3.45;;;;;;;6.70;44.15;96626.88;5087558;28;20020;-70
2022/03/23 06:55:07;;;;;;;6.45;4.05;;;;;;;6.79;44.02;96616.31;5087972;28;20032;-70
2022/03/23 06:57:33;;;;;;;16.20;4.93;;;;;;;7.14;43.32;96625.06;5087379;28;20035;-71
2022/03/23 06:59:58;;;;;;;8.15;3.70;;;;;;;7.15;42.97;96624.09;5087982;28;20024;-69
2022/03/23 07:02:24;;;;;;;10.00;4.38;;;;;;;7.38;42.98;96625.84;5087406;28;20043;-70
2022/03/23 07:04:50;;;;;;;10.20;4.57;;;;;;;7.53;42.94;96624.56;5087902;28;20028;-70
2022/03/23 07:07:15;;;;;;;10.95;4.18;;;;;;;7.65;42.07;96624.50;5086682;28;20020;-69
2022/03/23 07:09:40;;;;;;;9.05;3.85;;;;;;;7.69;41.73;96633.94;5087392;28;20032;-69
2022/03/23 07:12:08;;;;;;;7.20;3.80;;;;;;;7.58;41.93;96634.84;5087468;28;20089;-69
2022/03/23 07:14:33;;;;;;;7.78;4.00;;;;;;;7.37;42.14;96632.13;5087299;28;20038;-69
2022/03/23 07:16:59;;;;;;;8.15;3.90;;;;;;;6.90;43.50;96636.75;5087771;28;20032;-69
2022/03/23 07:19:25;;;;;;;6.18;3.60;;;;;;;6.68;43.11;96629.66;5087428;28;20050;-69
2022/03/23 07:21:50;;;;;;;12.63;3.60;;;;;;;6.57;43.51;96629.66;5087773;28;20097;-69
2022/03/23 07:24:16;;;;;;;6.40;3.20;;;;;;;6.53;43.25;96640.56;5087026;28;20027;-69
2022/03/23 07:26:42;;;;;;;7.20;3.78;;;;;;;7.18;43.05;96636.34;5087435;28;20039;-69
2022/03/23 07:29:08;;;;;;;9.13;3.58;;;;;;;7.37;42.06;96634.81;5085865;28;20024;-69
2022/03/23 07:31:33;;;;;;;5.07;3.35;;;;;;;7.68;40.96;96642.94;5087429;28;20036;-70
2022/03/23 07:33:59;;;;;;;7.00;3.00;;;;;;;7.68;40.76;96637.59;5086806;28;20020;-70
2022/03/23 07:36:24;;;;;;;8.73;3.53;;;;;;;7.49;40.51;96633.81;5086753;28;20242;-69
2022/03/23 07:38:51;;;;;;;9.10;3.40;;;;;;;7.91;40.12;96634.81;5085429;28;20082;-69
2022/03/23 07:41:16;;;;;;;4.85;3.15;;;;;;;7.81;39.59;96636.56;5086571;28;20043;-70
2022/03/23 07:43:42;;;;;;;8.50;3.45;;;;;;;7.75;40.29;96643.28;5087275;28;20028;-68
2022/03/23 07:46:07;;;;;;;8.88;2.90;;;;;;;8.09;39.03;96636.91;5085005;28;20097;-70
2022/03/23 07:48:33;;;;;;;6.07;3.20;;;;;;;8.28;39.31;96623.66;5087113;28;20101;-70
2022/03/23 07:50:58;;;;;;;4.70;3.33;;;;;;;8.12;38.28;96625.94;5086322;28;20101;-68
2022/03/23 07:53:23;;;;;;;4.15;3.00;;;;;;;8.21;38.24;96627.81;5086739;28;20024;-68
2022/03/23 07:55:49;;;;;;;7.38;3.47;;;;;;;8.38;38.00;96628.19;5086231;28;20035;-68
2022/03/23 07:58:14;;;;;;;6.43;3.13;;;;;;;8.57;38.14;96622.09;5085002;28;20024;-69
2022/03/23 08:00:41;;;;;;;5.65;2.90;;;;;;;8.62;37.61;96629.72;5086878;28;20448;-69
2022/03/23 08:03:07;;;;;;;7.85;2.80;;;;;;;8.82;36.94;96625.25;5085625;28;20098;-68
2022/03/23 08:05:32;;;;;;;7.05;2.88;;;;;;;8.72;36.18;96625.22;5086875;28;20059;-68
2022/03/23 08:07:58;;;;;;;6.47;2.75;;;;;;;8.91;36.33;96628.97;5084577;28;20792;-69
2022/03/23 08:10:23;;;;;;;6.43;3.58;;;;;;;8.80;36.35;96621.03;5086571;28;20379;-68
2022/03/23 08:12:51;;;;;;;5.30;2.60;;;;;;;8.90;36.80;96613.88;5085907;28;20028;-69
2022/03/23 08:15:16;;;;;;;8.50;2.78;;;;;;;9.17;36.66;96619.56;5086400;28;20035;-71
2022/03/23 08:17:42;;;;;;;5.35;3.10;;;;;;;9.43;36.18;96611.81;5085692;28;20459;-69
2022/03/23 08:22:52;;;;;;;7.65;3.25;;;;;;;9.35;35.81;96617.88;5086717;28;20089;-69
2022/03/23 08:25:18;;;;;;;8.32;2.83;;;;;;;9.03;35.80;96605.59;5085831;28;20032;-69
2022/03/23 08:27:43;;;;;;;5.68;3.13;;;;;;;9.32;35.41;96606.63;5086434;28;20024;-69
2022/03/23 08:30:09;;;;;;;6.18;3.00;;;;;;;9.47;35.58;96613.25;5085892;28;20055;-69
2022/03/23 08:32:34;;;;;;;7.90;3.42;;;;;;;9.47;35.07;96610.56;5085923;28;20024;-68
2022/03/23 08:35:00;;;;;;;9.43;3.40;;;;;;;9.52;35.55;96610.16;5085784;28;20020;-70
2022/03/23 08:37:26;;;;;;;7.65;3.67;;;;;;;9.05;35.82;96611.66;5085334;28;20036;-69
2022/03/23 08:39:52;;;;;;;9.52;3.20;;;;;;;9.14;35.33;96612.69;5086036;28;20073;-70
2022/03/23 08:42:17;;;;;;;7.22;3.33;;;;;;;9.30;35.54;96616.63;5084443;28;20040;-70
2022/03/23 08:44:45;;;;;;;8.27;3.67;;;;;;;9.49;35.36;96611.28;5086392;28;20441;-69
2022/03/23 08:47:10;;;;;;;12.38;4.00;;;;;;;9.44;35.50;96626.94;5085325;28;20528;-68
2022/03/23 08:49:36;;;;;;;10.48;3.95;;;;;;;9.45;35.54;96609.88;5085558;28;20020;-69
2022/03/23 08:52:01;;;;;;;10.88;3.72;;;;;;;9.35;35.80;96614.38;5085216;28;20466;-69
2022/03/23 08:54:28;;;;;;;6.75;3.58;;;;;;;9.26;35.74;96618.72;5085195;28;20036;-68
2022/03/23 08:56:53;;;;;;;9.65;3.80;;;;;;;9.32;35.80;96620.84;5084336;28;20032;-69
2022/03/23 08:59:18;;;;;;;9.57;3.60;;;;;;;9.13;35.16;96616.31;5084936;28;20027;-69
2022/03/23 09:01:44;;;;;;;9.85;3.45;;;;;;;9.14;35.67;96618.03;5086021;28;20024;-69
2022/03/23 09:04:10;;;;;;;8.45;3.78;;;;;;;9.28;35.24;96614.91;5084863;28;20038;-68
2022/03/23 09:06:36;;;;;;;6.40;3.53;;;;;;;9.33;35.25;96616.34;5085432;28;20032;-69
2022/03/23 09:09:01;;;;;;;8.00;3.97;;;;;;;9.32;35.72;96615.50;5084909;28;20031;-69
2022/03/23 09:11:27;;;;;;;11.25;4.00;;;;;;;9.42;35.15;96604.78;5085026;28;20024;-69
2022/03/23 09:13:52;;;;;;;7.10;4.00;;;;;;;9.61;35.52;96611.13;5085327;28;20043;-69
2022/03/23 09:16:18;;;;;;;7.05;3.60;;;;;;;9.77;35.28;96613.22;5084492;28;20048;-69
2022/03/23 09:18:43;;;;;;;9.30;3.85;;;;;;;9.96;34.90;96612.34;5085451;28;20039;-69
2022/03/23 09:21:09;;;;;;;8.32;3.30;;;;;;;9.95;35.06;96607.97;5084698;28;20032;-69
2022/03/23 09:23:36;;;;;;;10.73;3.20;;;;;;;9.80;35.13;96610.25;5085476;28;20035;-69
2022/03/23 09:26:03;;;;;;;8.32;4.00;;;;;;;9.82;34.43;96602.09;5084802;28;20059;-69
2022/03/23 09:28:28;;;;;;;10.50;3.83;;;;;;;9.85;34.57;96610.69;5085189;28;20486;-69
2022/03/23 09:30:54;;;;;;;6.97;3.58;;;;;;;9.73;35.15;96612.69;5084787;28;20032;-68
2022/03/23 09:33:19;;;;;;;7.93;3.70;;;;;;;9.55;34.93;96603.66;5084530;28;20028;-69
2022/03/23 09:35:45;;;;;;;8.27;3.63;;;;;;;9.55;35.60;96609.00;5085329;28;20035;-69
2022/03/23 09:38:11;;;;;;;7.45;3.80;;;;;;;9.37;36.07;96604.34;5084023;28;20048;-70
2022/03/23 09:40:37;;;;;;;11.02;3.95;;;;;;;9.62;35.75;96599.44;5085196;28;20035;-70
2022/03/23 09:43:11;;;;;;;8.25;4.13;;;;;;;9.58;34.80;96606.91;5066515;28;20027;-68
2022/03/23 09:45:46;;;;;;;9.38;3.50;;;;;;;9.32;35.57;96604.78;5084940;28;20032;-69
2022/03/23 09:48:12;;;;;;;6.50;3.50;;;;;;;9.35;35.20;96599.16;5084583;28;20422;-68
2022/03/23 09:50:40;;;;;;;5.40;3.67;;;;;;;9.16;35.24;96610.69;5085028;28;20429;-68
2022/03/23 09:53:05;;;;;;;7.30;3.80;;;;;;;9.13;36.46;96601.13;5084970;28;20506;-70
2022/03/23 09:55:31;;;;;;;7.07;3.95;;;;;;;9.38;35.77;96590.00;5084309;28;20028;-69
2022/03/23 09:57:58;;;;;;;11.10;3.65;;;;;;;9.18;35.76;96587.31;5085308;28;20024;-71
2022/03/23 10:00:27;;;;;;;7.47;4.20;;;;;;;9.21;35.64;96581.69;5084550;28;20095;-69
2022/03/23 10:02:55;;;;;;;7.43;3.65;;;;;;;9.28;35.55;96588.16;5084834;28;20124;-69
2022/03/23 10:05:24;;;;;;;10.02;3.63;;;;;;;9.13;35.23;96578.84;5084179;28;20027;-70
2022/03/23 10:08:08;;;;;;;8.73;3.50;;;;;;;8.96;35.45;96591.94;5084528;28;20573;-68
2022/03/23 10:11:10;;;;;;;6.78;3.53;;;;;;;8.95;34.93;96581.34;5084757;28;20069;-70
2022/03/23 10:14:23;;;;;;;7.47;3.50;;;;;;;9.09;35.20;96572.09;5084136;28;20034;-70
2022/03/23 10:17:07;;;;;;;5.93;4.00;;;;;;;9.01;35.31;96570.13;5083998;28;20055;-70
2022/03/23 10:19:33;;;;;;;9.52;4.22;;;;;;;8.93;35.16;96573.47;5084886;28;20036;-70
2022/03/23 10:22:08;;;;;;;5.63;3.58;;;;;;;8.85;35.04;96559.97;5084414;28;20024;-69
2022/03/23 10:24:34;;;;;;;11.23;4.05;;;;;;;8.85;35.22;96559.97;5084289;28;20038;-70
2022/03/23 10:27:04;;;;;;;6.10;3.72;;;;;;;9.00;35.09;96563.91;5084694;28;20115;-68
2022/03/23 10:29:32;;;;;;;9.15;3.30;;;;;;;9.09;35.09;96556.03;5084106;28;20089;-69
2022/03/23 10:32:05;;;;;;;10.60;3.83;;;;;;;9.17;35.01;96553.50;5084733;28;20031;-69
2022/03/23 10:34:41;;;;;;;6.93;3.75;;;;;;;9.25;33.76;96550.94;5082361;28;20055;-68
2022/03/23 10:37:06;;;;;;;15.50;4.00;;;;;;;9.11;34.50;96554.03;5084504;28;20045;-69
2022/03/23 10:39:32;;;;;;;8.98;3.72;;;;;;;9.06;34.37;96559.00;5083814;28;20020;-69
2022/03/23 10:42:09;;;;;;;8.13;3.58;;;;;;;9.20;34.60;96547.88;5086039;28;20043;-70
2022/03/23 10:44:35;;;;;;;6.70;3.50;;;;;;;9.09;34.74;96556.03;5086388;28;20168;-68
2022/03/23 10:47:00;;;;;;;7.05;3.63;;;;;;;9.30;34.59;96545.19;5087575;28;20020;-69
2022/03/23 10:49:36;;;;;;;12.70;3.80;;;;;;;9.12;35.31;96550.41;5088376;28;20081;-70
2022/03/23 10:52:15;;;;;;;5.38;3.30;;;;;;;9.14;35.46;96557.28;5087352;28;20107;-70
2022/03/23 10:54:51;;;;;;;10.75;3.65;;;;;;;9.11;34.82;96540.66;5087967;28;20036;-69
2022/03/23 10:57:17;;;;;;;8.73;4.00;;;;;;;9.19;34.93;96540.81;5087793;28;20028;-71
2022/03/23 10:59:44;;;;;;;5.93;3.65;;;;;;;9.27;35.22;96527.56;5085837;28;20489;-68
2022/03/23 11:02:10;;;;;;;7.82;3.47;;;;;;;9.50;34.67;96527.28;5088011;28;20571;-69
2022/03/23 11:04:41;;;;;;;7.90;4.03;;;;;;;9.59;35.44;96522.03;5087024;28;20023;-70
2022/03/23 11:07:07;;;;;;;6.50;3.70;;;;;;;9.75;34.13;96516.91;5088190;28;20162;-71
2022/03/23 11:17:49;;;;;;;5.18;3.03;;;;;;;9.94;32.78;96515.19;5087410;28;20144;-69
2022/03/23 11:20:16;;;;;;;8.10;3.60;;;;;;;9.99;33.00;96502.19;5088183;28;20462;-69
2022/03/23 11:22:41;;;;;;;6.28;3.80;;;;;;;10.12;32.55;96503.69;5086980;28;20050;-69
2022/03/23 11:25:07;;;;;;;10.07;3.88;;;;;;;10.07;32.21;96503.28;5087431;28;20024;-69
2022/03/23 11:27:32;;;;;;;7.80;4.00;;;;;;;10.10;32.78;96506.53;5087141;28;20012;-68
2022/03/23 11:29:58;;;;;;;8.32;3.97;;;;;;;10.20;32.26;96503.81;5085482;28;20016;-69
2022/03/23 11:32:24;;;;;;;7.35;3.80;;;;;;;10.32;33.00;96493.72;5087398;28;20024;-68
2022/03/23 11:34:49;;;;;;;6.63;3.53;;;;;;;10.32;32.25;96498.22;5085037;28;20050;-68
2022/03/23 11:37:15;;;;;;;14.13;4.40;;;;;;;10.49;31.66;96485.91;5069065;28;20510;-69
2022/03/23 11:39:41;;;;;;;9.38;3.53;;;;;;;10.45;32.84;96487.13;5068371;28;20169;-68
2022/03/23 11:42:06;;;;;;;7.88;3.85;;;;;;;10.67;32.33;96483.25;5085883;28;20028;-69
2022/03/23 11:44:32;;;;;;;10.75;3.53;;;;;;;10.68;32.10;96479.56;5086621;28;20138;-69
2022/03/23 11:47:05;;;;;;;6.57;3.55;;;;;;;10.68;31.74;96468.81;5085144;28;20456;-69
2022/03/23 11:49:49;;;;;;;9.40;3.88;;;;;;;10.80;32.21;96472.13;5087019;28;20036;-67
2022/03/23 11:52:23;;;;;;;9.43;3.75;;;;;;;10.86;31.48;96478.72;5084991;28;20024;-69
2022/03/23 11:57:54;;;;;;;9.70;3.63;;;;;;;10.99;30.98;96472.97;5085430;28;20089;-69
2022/03/23 12:00:20;;;;;;;6.55;3.38;;;;;;;11.08;30.79;96465.81;5086451;28;20109;-69
2022/03/23 12:02:45;;;;;;;9.00;3.40;;;;;;;11.07;30.70;96469.53;5087132;28;20055;-69